createdAt,value
2023-04-10T00:01:39.809Z,77.57
2023-04-10T00:04:06.642Z,77.55
2023-04-10T00:06:33.425Z,77.91
2023-04-10T00:09:00.293Z,77.67
2023-04-10T00:11:27.959Z,77.96
2023-04-10T00:13:54.834Z,77.73
2023-04-10T00:16:21.755Z,78.04
2023-04-10T00:18:48.481Z,78.57
2023-04-10T00:21:15.764Z,77.93
2023-04-10T00:23:42.649Z,77.79
2023-04-10T00:26:09.508Z,78.20
2023-04-10T00:28:38.964Z,77.22
2023-04-10T00:31:05.932Z,77.42
2023-04-10T00:33:32.649Z,78.09
2023-04-10T00:36:02.282Z,78.34
2023-04-10T00:38:30.443Z,78.62
2023-04-10T00:40:57.039Z,78.41
2023-04-10T00:43:24.693Z,77.76
2023-04-10T00:45:51.329Z,77.87
2023-04-10T00:48:18.208Z,78.90
2023-04-10T00:50:46.685Z,78.81
2023-04-10T00:53:13.664Z,79.08
2023-04-10T00:55:40.852Z,79.65
2023-04-10T00:58:07.534Z,80.13
2023-04-10T01:00:34.152Z,79.70
2023-04-10T01:03:03.173Z,79.78
2023-04-10T01:05:39.463Z,78.73
2023-04-10T01:08:29.938Z,79.12
2023-04-10T01:11:09.533Z,79.30
2023-04-10T01:13:49.153Z,79.37
2023-04-10T01:16:24.665Z,79.38
2023-04-10T01:19:25.822Z,79.20
2023-04-10T01:21:54.901Z,79.08
2023-04-10T01:24:48.553Z,78.94
2023-04-10T01:27:21.079Z,79.28
2023-04-10T01:29:55.009Z,79.99
2023-04-10T01:32:22.650Z,79.51
2023-04-10T01:34:55.697Z,79.78
2023-04-10T01:37:31.211Z,80.09
2023-04-10T01:40:01.997Z,79.93
2023-04-10T01:42:32.404Z,80.40
2023-04-10T01:45:00.397Z,80.10
2023-04-10T01:47:28.160Z,79.60
2023-04-10T01:49:55.084Z,80.08
2023-04-10T01:52:23.579Z,79.69
2023-04-10T01:54:52.105Z,80.06
2023-04-10T01:57:19.931Z,79.80
2023-04-10T01:59:47.136Z,79.93
2023-04-10T02:02:13.997Z,79.87
2023-04-10T02:04:41.096Z,79.84
2023-04-10T02:07:17.151Z,79.82
2023-04-10T02:10:07.238Z,79.84
2023-04-10T02:12:46.783Z,79.83
2023-04-10T02:15:14.494Z,79.98
2023-04-10T02:17:42.057Z,79.94
2023-04-10T02:20:09.704Z,79.94
2023-04-10T02:22:37.180Z,80.00
2023-04-10T02:25:06.329Z,80.18
2023-04-10T02:27:35.192Z,80.28
2023-04-10T02:30:06.217Z,80.18
2023-04-10T02:32:34.444Z,80.11
2023-04-10T02:35:02.631Z,80.23
2023-04-10T02:37:29.576Z,80.62
2023-04-10T02:39:56.303Z,80.64
2023-04-10T02:42:23.165Z,80.59
2023-04-10T02:44:49.798Z,80.32
2023-04-10T02:47:16.936Z,80.20
2023-04-10T02:49:44.362Z,80.22
2023-04-10T02:52:11.075Z,80.04
2023-04-10T02:54:37.745Z,79.90
2023-04-10T02:57:04.906Z,79.60
2023-04-10T02:59:31.824Z,80.10
2023-04-10T03:01:58.467Z,79.94
2023-04-10T03:04:25.561Z,79.99
2023-04-10T03:06:52.336Z,80.07
2023-04-10T03:09:18.956Z,80.80
2023-04-10T03:11:45.681Z,80.84
2023-04-10T03:14:12.239Z,80.55
2023-04-10T03:16:38.983Z,80.45
2023-04-10T03:19:05.847Z,79.91
2023-04-10T03:21:32.601Z,79.29
2023-04-10T03:23:59.230Z,78.83
2023-04-10T03:26:25.885Z,78.59
2023-04-10T03:28:52.523Z,78.63
2023-04-10T03:31:20.646Z,79.21
2023-04-10T03:33:47.341Z,79.86
2023-04-10T03:36:14.179Z,79.71
2023-04-10T03:38:40.916Z,79.81
2023-04-10T03:41:10.153Z,79.62
2023-04-10T03:43:36.858Z,80.48
2023-04-10T03:46:03.446Z,78.52
2023-04-10T03:48:30.795Z,77.86
2023-04-10T03:50:57.660Z,76.89
2023-04-10T03:53:24.778Z,76.71
2023-04-10T03:55:52.825Z,76.50
2023-04-10T03:58:19.686Z,75.45
2023-04-10T04:00:47.401Z,75.44
2023-04-10T04:03:14.312Z,74.84
2023-04-10T04:05:41.389Z,74.84
2023-04-10T04:08:08.231Z,74.44
2023-04-10T04:10:34.975Z,72.94
2023-04-10T04:13:01.638Z,73.26
2023-04-10T04:15:28.338Z,72.86
2023-04-10T04:17:54.927Z,72.14
2023-04-10T04:20:21.634Z,71.93
2023-04-10T04:22:48.374Z,72.01
2023-04-10T04:25:14.985Z,71.55
2023-04-10T04:27:41.890Z,71.46
2023-04-10T04:30:11.032Z,70.67
2023-04-10T04:32:37.790Z,70.73
2023-04-10T04:35:04.781Z,70.95
2023-04-10T04:37:31.356Z,70.65
2023-04-10T04:39:57.968Z,70.66
2023-04-10T04:42:24.562Z,70.49
2023-04-10T04:44:51.285Z,70.18
2023-04-10T04:47:18.042Z,70.16
2023-04-10T04:49:44.648Z,70.21
2023-04-10T04:52:11.892Z,69.86
2023-04-10T04:54:38.532Z,70.25
2023-04-10T04:57:05.259Z,70.04
2023-04-10T04:59:31.859Z,69.93
2023-04-10T05:01:58.696Z,69.69
2023-04-10T05:04:25.935Z,69.61
2023-04-10T05:06:52.690Z,69.22
2023-04-10T05:09:19.337Z,69.09
2023-04-10T05:11:46.101Z,69.40
2023-04-10T05:14:12.707Z,69.37
2023-04-10T05:16:39.261Z,68.95
2023-04-10T05:19:06.125Z,69.02
2023-04-10T05:21:32.937Z,69.12
2023-04-10T05:23:59.522Z,69.15
2023-04-10T05:26:26.138Z,68.59
2023-04-10T05:28:53.118Z,68.80
2023-04-10T05:31:19.969Z,68.62
2023-04-10T05:33:46.944Z,68.47
2023-04-10T05:36:13.756Z,68.08
2023-04-10T05:38:41.493Z,68.11
2023-04-10T05:41:08.417Z,67.95
2023-04-10T05:43:36.712Z,68.09
2023-04-10T05:46:03.690Z,67.73
2023-04-10T05:48:30.524Z,67.46
2023-04-10T05:50:57.171Z,67.23
2023-04-10T05:53:32.335Z,67.29
2023-04-10T05:55:59.735Z,67.25
2023-04-10T05:58:27.413Z,67.13
2023-04-10T06:00:54.064Z,67.08
2023-04-10T06:03:21.040Z,66.76
2023-04-10T06:05:48.582Z,66.85
2023-04-10T06:08:15.321Z,66.85
2023-04-10T06:10:44.922Z,66.96
2023-04-10T06:13:12.149Z,66.48
2023-04-10T06:15:38.746Z,66.44
2023-04-10T06:18:05.570Z,66.52
2023-04-10T06:20:32.356Z,66.37
2023-04-10T06:22:59.524Z,66.09
2023-04-10T06:25:26.736Z,66.04
2023-04-10T06:27:53.344Z,66.23
2023-04-10T06:33:40.279Z,65.51
2023-04-10T06:36:07.387Z,65.64
2023-04-10T06:38:37.824Z,65.28
2023-04-10T06:41:07.941Z,65.19
2023-04-10T06:43:36.021Z,65.02
2023-04-10T06:46:06.387Z,64.84
2023-04-10T06:48:33.913Z,64.99
2023-04-10T06:51:03.786Z,64.62
2023-04-10T06:53:30.669Z,64.52
2023-04-10T06:55:57.628Z,64.25
2023-04-10T06:58:27.951Z,64.31
2023-04-10T07:00:54.898Z,64.17
2023-04-10T07:03:21.959Z,63.62
2023-04-10T07:05:48.532Z,63.57
2023-04-10T07:08:16.080Z,63.18
2023-04-10T07:10:44.995Z,62.82
2023-04-10T07:13:11.726Z,62.64
2023-04-10T07:15:38.422Z,62.32
2023-04-10T07:18:06.984Z,61.81
2023-04-10T07:20:33.669Z,61.79
2023-04-10T07:23:00.779Z,61.53
2023-04-10T07:25:27.972Z,61.19
2023-04-10T07:27:57.728Z,60.17
2023-04-10T07:30:24.510Z,60.07
2023-04-10T07:32:51.205Z,59.58
2023-04-10T07:35:18.138Z,59.51
2023-04-10T07:37:45.065Z,58.90
2023-04-10T07:40:12.208Z,58.69
2023-04-10T07:42:39.828Z,58.02
2023-04-10T07:45:09.302Z,58.27
2023-04-10T07:47:36.028Z,57.74
2023-04-10T07:50:02.698Z,58.01
2023-04-10T07:52:29.305Z,58.17
2023-04-10T07:54:56.894Z,57.85
2023-04-10T07:57:24.727Z,57.52
2023-04-10T07:59:51.244Z,57.02
2023-04-10T08:02:19.313Z,56.06
2023-04-10T08:04:46.271Z,56.19
2023-04-10T08:07:13.131Z,55.57
2023-04-10T08:09:40.132Z,55.51
2023-04-10T08:12:06.875Z,55.33
2023-04-10T08:14:33.520Z,54.70
2023-04-10T08:17:00.325Z,54.09
2023-04-10T08:19:28.125Z,54.44
2023-04-10T08:21:54.750Z,54.80
2023-04-10T08:24:23.106Z,54.00
2023-04-10T08:26:50.392Z,53.67
2023-04-10T08:29:17.237Z,53.71
2023-04-10T08:31:43.900Z,53.26
2023-04-10T08:34:10.687Z,53.14
2023-04-10T08:36:37.329Z,53.14
2023-04-10T08:39:04.026Z,53.05
2023-04-10T08:41:30.665Z,53.43
2023-04-10T08:44:00.170Z,53.22
2023-04-10T08:46:27.689Z,52.37
2023-04-10T08:49:02.541Z,52.42
2023-04-10T08:51:39.280Z,52.26
2023-04-10T08:54:17.967Z,51.89
2023-04-10T08:56:50.131Z,51.53
2023-04-10T08:59:17.309Z,51.32
2023-04-10T09:01:44.327Z,50.99
2023-04-10T09:04:14.431Z,51.20
2023-04-10T09:06:41.145Z,50.60
2023-04-10T09:09:08.221Z,50.21
2023-04-10T09:11:54.055Z,50.06
2023-04-10T09:14:26.053Z,49.21
2023-04-10T09:17:17.660Z,48.88
2023-04-10T09:19:46.205Z,48.48
2023-04-10T09:22:15.007Z,48.49
2023-04-10T09:24:45.103Z,47.84
2023-04-10T09:27:27.307Z,48.07
2023-04-10T09:29:53.981Z,47.73
2023-04-10T09:32:44.142Z,47.54
2023-04-10T09:35:12.643Z,47.49
2023-04-10T09:37:40.989Z,47.36
2023-04-10T09:40:20.911Z,47.30
2023-04-10T09:42:47.520Z,47.22
2023-04-10T09:45:14.097Z,47.36
2023-04-10T09:47:40.751Z,47.34
2023-04-10T09:50:07.844Z,47.11
2023-04-10T09:52:35.400Z,46.82
2023-04-10T09:55:06.284Z,46.56
2023-04-10T09:57:35.574Z,46.29
2023-04-10T10:00:05.358Z,46.29
2023-04-10T10:02:37.408Z,45.97
2023-04-10T10:05:07.020Z,45.98
2023-04-10T10:07:34.455Z,45.41
2023-04-10T10:10:03.125Z,45.04
2023-04-10T10:12:44.450Z,45.44
2023-04-10T10:15:14.063Z,45.01
2023-04-10T10:17:51.606Z,44.42
2023-04-10T10:20:22.762Z,44.47
2023-04-10T10:22:50.626Z,44.33
2023-04-10T10:25:20.085Z,45.00
2023-04-10T10:27:47.773Z,45.21
2023-04-10T10:30:28.053Z,44.94
2023-04-10T10:32:56.527Z,43.55
2023-04-10T10:35:26.363Z,43.91
2023-04-10T10:37:55.313Z,44.38
2023-04-10T10:40:45.191Z,43.51
2023-04-10T10:43:26.189Z,43.85
2023-04-10T10:45:57.770Z,43.22
2023-04-10T10:48:24.550Z,43.23
2023-04-10T10:50:54.345Z,43.31
2023-04-10T10:53:36.317Z,42.90
2023-04-10T10:56:18.557Z,42.71
2023-04-10T10:58:50.928Z,42.02
2023-04-10T11:01:18.722Z,41.64
2023-04-10T11:03:45.794Z,41.62
2023-04-10T11:06:20.534Z,41.95
2023-04-10T11:08:48.865Z,41.67
2023-04-10T11:11:28.088Z,41.56
2023-04-10T11:13:57.623Z,41.02
2023-04-10T11:16:42.030Z,41.52
2023-04-10T11:19:15.913Z,41.02
2023-04-10T11:22:05.625Z,41.08
2023-04-10T11:24:57.633Z,40.41
2023-04-10T11:27:46.084Z,40.87
2023-04-10T11:30:33.533Z,40.87
2023-04-10T11:33:01.469Z,41.17
2023-04-10T11:35:29.042Z,40.90
2023-04-10T11:38:09.704Z,40.18
2023-04-10T11:40:36.457Z,40.44
2023-04-10T11:43:15.536Z,40.40
2023-04-10T11:45:43.620Z,39.93
2023-04-10T11:48:10.555Z,40.96
2023-04-10T11:50:37.245Z,41.49
2023-04-10T11:53:19.578Z,42.13
2023-04-10T11:55:48.580Z,41.92
2023-04-10T11:58:28.524Z,42.11
2023-04-10T12:01:05.419Z,42.58
2023-04-10T12:03:42.817Z,42.40
2023-04-10T12:06:13.396Z,42.48
2023-04-10T12:08:42.730Z,42.38
2023-04-10T12:11:10.968Z,42.41
2023-04-10T12:13:38.728Z,42.47
2023-04-10T12:16:08.403Z,42.80
2023-04-10T12:18:35.472Z,42.47
2023-04-10T12:21:03.333Z,42.07
2023-04-10T12:23:37.133Z,42.03
2023-04-10T12:26:15.143Z,42.39
2023-04-10T12:28:51.299Z,41.76
2023-04-10T12:31:18.187Z,41.77
2023-04-10T12:33:46.600Z,41.12
2023-04-10T12:36:24.369Z,40.89
2023-04-10T12:38:51.342Z,40.98
2023-04-10T12:41:24.172Z,41.28
2023-04-10T12:43:52.405Z,40.74
2023-04-10T12:46:27.926Z,40.52
2023-04-10T12:48:56.239Z,40.48
2023-04-10T12:51:51.426Z,40.11
2023-04-10T12:54:34.438Z,40.63
2023-04-10T12:57:02.433Z,40.31
2023-04-10T12:59:30.425Z,40.73
2023-04-10T13:01:57.201Z,40.50
2023-04-10T13:04:24.430Z,40.69
2023-04-10T13:06:54.457Z,40.38
2023-04-10T13:09:21.968Z,40.24
2023-04-10T13:11:50.372Z,40.23
2023-04-10T13:14:18.461Z,40.48
2023-04-10T13:16:45.469Z,40.73
2023-04-10T13:19:13.086Z,40.68
2023-04-10T13:21:42.385Z,40.55
2023-04-10T13:24:08.957Z,40.56
2023-04-10T13:26:35.684Z,40.63
2023-04-10T13:29:02.356Z,40.28
2023-04-10T13:31:31.471Z,40.46
2023-04-10T13:34:01.372Z,40.52
2023-04-10T13:36:28.579Z,40.62
2023-04-10T13:38:55.681Z,40.71
2023-04-10T13:41:24.039Z,40.94
2023-04-10T13:43:50.729Z,40.73
2023-04-10T13:46:17.778Z,40.60
2023-04-10T13:48:44.606Z,40.60
2023-04-10T13:51:12.952Z,41.12
2023-04-10T13:53:39.588Z,41.28
2023-04-10T13:56:09.424Z,41.07
2023-04-10T13:58:38.762Z,41.61
2023-04-10T14:01:05.590Z,41.81
2023-04-10T14:03:32.661Z,41.89
2023-04-10T14:06:00.934Z,41.60
2023-04-10T14:08:28.925Z,41.52
2023-04-10T14:10:56.452Z,41.05
2023-04-10T14:13:23.060Z,41.04
2023-04-10T14:15:52.159Z,40.61
2023-04-10T14:18:19.881Z,40.78
2023-04-10T14:20:46.652Z,41.19
2023-04-10T14:23:18.634Z,41.75
2023-04-10T14:25:46.559Z,41.64
2023-04-10T14:28:19.360Z,41.87
2023-04-10T14:30:48.716Z,41.89
2023-04-10T14:33:22.390Z,41.92
2023-04-10T14:35:49.166Z,41.76
2023-04-10T14:38:16.313Z,41.35
2023-04-10T14:40:43.058Z,42.06
2023-04-10T14:43:09.724Z,41.55
2023-04-10T14:45:36.409Z,41.31
2023-04-10T14:48:03.441Z,41.40
2023-04-10T14:50:32.240Z,40.94
2023-04-10T14:53:02.745Z,41.47
2023-04-10T14:55:30.380Z,41.18
2023-04-10T14:57:59.056Z,40.57
2023-04-10T15:00:26.382Z,40.55
2023-04-10T15:02:53.209Z,38.47
2023-04-10T15:05:20.401Z,38.24
2023-04-10T15:07:47.044Z,38.28
2023-04-10T15:10:13.717Z,38.20
2023-04-10T15:12:40.412Z,38.41
2023-04-10T15:15:07.683Z,38.31
2023-04-10T15:17:34.609Z,38.94
2023-04-10T15:20:01.503Z,39.69
2023-04-10T15:22:29.445Z,39.75
2023-04-10T15:24:57.696Z,40.08
2023-04-10T15:27:25.011Z,40.36
2023-04-10T15:29:51.653Z,41.03
2023-04-10T15:32:19.589Z,41.64
2023-04-10T15:34:46.475Z,41.76
2023-04-10T15:37:13.152Z,42.52
2023-04-10T15:39:39.776Z,42.57
2023-04-10T15:42:07.645Z,42.87
2023-04-10T15:44:34.297Z,43.07
2023-04-10T15:47:01.110Z,43.19
2023-04-10T15:49:37.113Z,43.58
2023-04-10T15:52:04.804Z,43.82
2023-04-10T15:54:33.376Z,44.09
2023-04-10T15:57:00.160Z,44.27
2023-04-10T15:59:26.738Z,44.67
2023-04-10T16:01:53.420Z,44.64
2023-04-10T16:04:20.124Z,45.16
2023-04-10T16:06:46.905Z,45.32
2023-04-10T16:09:25.012Z,45.65
2023-04-10T16:11:55.194Z,45.90
2023-04-10T16:14:22.756Z,46.06
2023-04-10T16:16:49.483Z,46.27
2023-04-10T16:19:16.088Z,46.54
2023-04-10T16:21:43.132Z,46.85
2023-04-10T16:24:09.762Z,46.99
2023-04-10T16:26:36.459Z,47.88
2023-04-10T16:29:03.125Z,48.98
2023-04-10T16:31:29.786Z,49.82
2023-04-10T16:33:56.861Z,50.67
2023-04-10T16:36:26.250Z,50.87
2023-04-10T16:38:53.198Z,51.56
2023-04-10T16:41:23.125Z,53.93
2023-04-10T16:43:49.828Z,56.10
2023-04-10T16:46:16.502Z,57.85
2023-04-10T16:48:45.216Z,59.55
2023-04-10T16:51:17.799Z,62.14
2023-04-10T16:53:46.192Z,63.01
2023-04-10T16:56:12.826Z,62.41
2023-04-10T16:58:42.130Z,63.36
2023-04-10T17:01:25.727Z,64.73
2023-04-10T17:03:53.391Z,64.16
2023-04-10T17:06:21.805Z,65.66
2023-04-10T17:08:48.779Z,66.94
2023-04-10T17:11:18.414Z,66.94
2023-04-10T17:13:46.011Z,65.69
2023-04-10T17:16:12.708Z,63.68
2023-04-10T17:18:39.377Z,64.79
2023-04-10T17:21:10.213Z,66.16
2023-04-10T17:23:36.962Z,65.69
2023-04-10T17:26:06.807Z,66.32
2023-04-10T17:28:35.325Z,65.34
2023-04-10T17:31:02.557Z,65.91
2023-04-10T17:33:29.245Z,65.92
2023-04-10T17:35:56.104Z,65.48
2023-04-10T17:38:22.830Z,67.35
2023-04-10T17:40:52.030Z,67.25
2023-04-10T17:43:18.681Z,66.88
2023-04-10T17:45:45.350Z,66.58
2023-04-10T17:48:12.133Z,65.20
2023-04-10T17:50:38.890Z,64.09
2023-04-10T17:53:05.562Z,63.29
2023-04-10T17:58:39.649Z,60.89
2023-04-10T18:01:07.473Z,60.41
2023-04-10T18:03:34.127Z,60.21
2023-04-10T18:06:02.006Z,61.05
2023-04-10T18:08:28.581Z,61.20
2023-04-10T18:10:55.750Z,62.04
2023-04-10T18:13:22.650Z,61.57
2023-04-10T18:15:49.251Z,60.74
2023-04-10T18:18:16.064Z,60.07
2023-04-10T18:20:42.676Z,59.77
2023-04-10T18:23:09.279Z,59.88
2023-04-10T18:25:36.468Z,60.34
2023-04-10T18:30:32.689Z,59.86
2023-04-10T18:33:05.068Z,60.78
2023-04-10T18:35:32.225Z,61.42
2023-04-10T18:37:59.773Z,61.07
2023-04-10T18:40:26.569Z,60.11
2023-04-10T18:42:53.229Z,60.58
2023-04-10T18:45:20.868Z,60.55
2023-04-10T18:47:47.650Z,60.80
2023-04-10T18:50:14.739Z,60.22
2023-04-10T18:52:41.309Z,60.86
2023-04-10T18:55:08.406Z,60.60
2023-04-10T18:57:35.105Z,61.41
2023-04-10T19:00:02.185Z,62.85
2023-04-10T19:02:29.015Z,63.74
2023-04-10T19:04:56.037Z,66.50
2023-04-10T19:07:23.264Z,68.08
2023-04-10T19:09:50.035Z,68.77
2023-04-10T19:12:16.788Z,71.23
2023-04-10T19:14:44.125Z,70.90
2023-04-10T19:25:15.323Z,74.00
2023-04-10T19:27:41.897Z,74.93
2023-04-10T19:30:08.988Z,76.76
2023-04-10T19:35:15.990Z,77.33
2023-04-10T19:37:42.584Z,78.46
2023-04-10T19:40:09.638Z,79.52
2023-04-10T19:42:36.459Z,80.94
2023-04-10T19:45:03.402Z,81.91
2023-04-10T19:47:30.049Z,82.49
2023-04-10T19:52:37.037Z,83.85
2023-04-10T19:55:04.013Z,84.84
2023-04-10T19:57:39.040Z,84.90
2023-04-10T20:00:07.129Z,85.33
2023-04-10T20:02:33.874Z,86.36
2023-04-10T20:05:07.964Z,87.54
2023-04-10T20:07:35.314Z,88.58
2023-04-10T20:10:03.518Z,89.31
2023-04-10T20:12:33.211Z,89.81
2023-04-10T20:15:04.054Z,90.51
2023-04-10T20:17:31.011Z,90.82
2023-04-10T20:22:38.124Z,89.01
2023-04-10T20:27:45.525Z,89.07
2023-04-10T20:30:12.939Z,89.61
2023-04-10T20:35:20.079Z,89.25
2023-04-10T20:37:48.299Z,89.79
2023-04-10T20:40:22.304Z,90.48
2023-04-10T20:42:49.242Z,90.78
2023-04-10T20:45:16.073Z,90.47
2023-04-10T20:47:43.005Z,90.69
2023-04-10T20:50:11.496Z,89.63
2023-04-10T20:52:39.872Z,89.63
2023-04-10T20:55:06.909Z,90.28
2023-04-10T20:57:36.320Z,89.64
2023-04-10T21:00:03.479Z,89.52
2023-04-10T21:02:30.505Z,88.74
2023-04-10T21:04:57.256Z,88.66
2023-04-10T21:07:23.864Z,89.17
2023-04-10T21:09:50.449Z,88.75
2023-04-10T21:12:17.064Z,89.68
2023-04-10T21:14:43.737Z,89.62
2023-04-10T21:17:10.453Z,89.41
2023-04-10T21:19:37.030Z,90.12
2023-04-10T21:22:05.278Z,90.04
2023-04-10T21:27:12.446Z,89.84
2023-04-10T21:29:39.039Z,89.36
2023-04-10T21:34:46.078Z,89.55
2023-04-10T21:39:53.078Z,89.67
2023-04-10T21:45:00.761Z,90.38
2023-04-10T21:47:27.343Z,90.71
2023-04-10T21:49:54.004Z,90.82
2023-04-10T21:52:20.653Z,91.98
2023-04-10T21:54:47.317Z,92.62
2023-04-10T21:57:13.974Z,93.09
2023-04-10T21:59:40.882Z,93.48
2023-04-10T22:02:07.603Z,93.84
2023-04-10T22:04:34.693Z,94.00
2023-04-10T22:07:05.500Z,94.21
2023-04-10T22:09:32.166Z,94.31
2023-04-10T22:11:58.750Z,93.69
2023-04-10T22:14:25.856Z,93.22
2023-04-10T22:16:52.456Z,93.85
2023-04-10T22:19:19.130Z,93.84
2023-04-10T22:21:45.787Z,93.87
2023-04-10T22:24:12.454Z,93.81
2023-04-10T22:26:42.200Z,93.97
2023-04-10T22:29:08.806Z,93.64
2023-04-10T22:31:35.504Z,93.65
2023-04-10T22:34:02.261Z,93.62
2023-04-10T22:36:33.907Z,93.45
2023-04-10T22:39:00.779Z,93.30
2023-04-10T22:41:27.774Z,93.09
2023-04-10T22:43:54.337Z,92.52
2023-04-10T22:46:20.980Z,92.85
2023-04-10T22:48:47.620Z,92.44
2023-04-10T22:51:14.698Z,92.22
2023-04-10T22:53:41.734Z,92.15
2023-04-10T22:56:09.816Z,92.00
2023-04-10T22:58:39.317Z,92.10
2023-04-10T23:01:09.889Z,92.15
2023-04-10T23:03:36.728Z,91.65
2023-04-10T23:06:04.111Z,91.15
2023-04-10T23:08:30.757Z,91.17
2023-04-10T23:11:00.275Z,91.04
2023-04-10T23:13:26.923Z,90.78
2023-04-10T23:15:55.504Z,90.50
2023-04-10T23:18:23.188Z,90.97
2023-04-10T23:20:50.788Z,91.91
2023-04-10T23:23:18.273Z,92.14
2023-04-10T23:25:44.895Z,92.42
2023-04-10T23:28:11.539Z,92.11
2023-04-10T23:30:38.256Z,91.66
2023-04-10T23:33:05.023Z,91.84
2023-04-10T23:35:31.662Z,91.83
2023-04-10T23:37:58.262Z,90.96
2023-04-10T23:40:24.985Z,89.62
2023-04-10T23:42:51.597Z,89.07
2023-04-10T23:45:18.365Z,87.85
2023-04-10T23:47:45.063Z,87.51
2023-04-10T23:50:11.671Z,87.59
2023-04-10T23:52:38.238Z,86.92
2023-04-10T23:55:05.733Z,87.48
